createdAt,value
2018-06-03T00:01:10.455Z,51.57
2018-06-03T00:03:38.641Z,51.64
2018-06-03T00:06:06.905Z,51.55
2018-06-03T00:08:35.083Z,51.52
2018-06-03T00:11:03.266Z,51.51
2018-06-03T00:13:31.478Z,51.46
2018-06-03T00:15:59.660Z,51.33
2018-06-03T00:18:27.868Z,51.53
2018-06-03T00:21:07.692Z,51.39
2018-06-03T00:23:35.903Z,51.59
2018-06-03T00:26:04.433Z,51.78
2018-06-03T00:28:33.030Z,51.69
2018-06-03T00:31:01.510Z,51.91
2018-06-03T00:33:30.024Z,52.06
2018-06-03T00:36:10.277Z,52.48
2018-06-03T00:38:38.838Z,52.60
2018-06-03T00:41:07.320Z,52.38
2018-06-03T00:43:35.835Z,52.07
2018-06-03T00:46:04.373Z,51.96
2018-06-03T00:48:32.880Z,52.08
2018-06-03T00:51:01.401Z,52.22
2018-06-03T00:53:29.876Z,52.23
2018-06-03T00:55:58.384Z,52.05
2018-06-03T00:58:26.871Z,52.06
2018-06-03T01:00:55.384Z,52.21
2018-06-03T01:03:23.900Z,52.35
2018-06-03T01:05:52.421Z,52.58
2018-06-03T01:08:20.889Z,52.73
2018-06-03T01:10:49.389Z,52.94
2018-06-03T01:13:17.860Z,53.07
2018-06-03T01:15:46.369Z,52.91
2018-06-03T01:18:14.925Z,53.03
2018-06-03T01:20:43.428Z,52.84
2018-06-03T01:23:11.953Z,53.26
2018-06-03T01:25:40.468Z,52.88
2018-06-03T01:28:08.950Z,52.95
2018-06-03T01:30:37.464Z,52.99
2018-06-03T01:33:05.985Z,53.03
2018-06-03T01:35:34.544Z,53.18
2018-06-03T01:38:03.052Z,53.30
2018-06-03T01:40:31.560Z,53.37
2018-06-03T01:43:00.076Z,53.49
2018-06-03T01:45:28.544Z,53.03
2018-06-03T01:47:57.049Z,53.30
2018-06-03T01:50:25.569Z,53.38
2018-06-03T01:52:54.068Z,53.27
2018-06-03T01:55:22.554Z,53.41
2018-06-03T01:57:51.064Z,53.54
2018-06-03T02:00:19.536Z,53.44
2018-06-03T02:02:48.004Z,53.56
2018-06-03T02:05:16.543Z,53.51
2018-06-03T02:07:45.008Z,53.19
2018-06-03T02:10:13.509Z,53.64
2018-06-03T02:12:42.052Z,53.95
2018-06-03T02:15:10.524Z,53.80
2018-06-03T02:17:39.040Z,53.95
2018-06-03T02:20:07.507Z,54.05
2018-06-03T02:22:35.973Z,54.27
2018-06-03T02:25:04.581Z,54.05
2018-06-03T02:27:33.080Z,54.31
2018-06-03T02:30:01.566Z,54.37
2018-06-03T02:32:30.122Z,54.61
2018-06-03T02:34:58.593Z,54.79
2018-06-03T02:37:27.064Z,54.58
2018-06-03T02:39:55.576Z,54.35
2018-06-03T02:42:24.054Z,54.92
2018-06-03T02:44:52.556Z,54.71
2018-06-03T02:47:21.030Z,54.68
2018-06-03T02:49:49.576Z,54.15
2018-06-03T02:52:18.088Z,54.13
2018-06-03T02:54:46.564Z,54.39
2018-06-03T02:57:15.053Z,54.42
2018-06-03T02:59:43.564Z,54.36
2018-06-03T03:02:12.080Z,54.66
2018-06-03T03:04:40.553Z,54.91
2018-06-03T03:07:09.058Z,55.40
2018-06-03T03:09:37.521Z,55.07
2018-06-03T03:12:06.033Z,55.01
2018-06-03T03:14:34.514Z,55.35
2018-06-03T03:17:03.000Z,55.05
2018-06-03T03:19:31.520Z,55.32
2018-06-03T03:22:00.036Z,55.21
2018-06-03T03:24:28.567Z,55.07
2018-06-03T03:26:57.073Z,54.69
2018-06-03T03:29:25.549Z,54.31
2018-06-03T03:31:54.057Z,54.29
2018-06-03T03:34:22.537Z,53.91
2018-06-03T03:36:51.010Z,54.20
2018-06-03T03:39:19.536Z,54.08
2018-06-03T03:41:48.000Z,53.23
2018-06-03T03:44:16.512Z,52.75
2018-06-03T03:46:44.977Z,52.58
2018-06-03T03:49:13.466Z,53.22
2018-06-03T03:51:41.966Z,52.70
2018-06-03T03:54:10.443Z,52.18
2018-06-03T03:56:38.956Z,51.57
2018-06-03T03:59:07.432Z,50.88
2018-06-03T04:01:35.897Z,50.54
2018-06-03T04:04:04.403Z,49.40
2018-06-03T04:06:32.913Z,49.53
2018-06-03T04:09:01.439Z,49.84
2018-06-03T04:11:29.965Z,48.96
2018-06-03T04:13:58.433Z,48.37
2018-06-03T04:16:26.944Z,47.48
2018-06-03T04:18:55.408Z,47.14
2018-06-03T04:21:23.904Z,47.24
2018-06-03T04:23:52.368Z,45.91
2018-06-03T04:26:20.877Z,45.74
2018-06-03T04:28:49.376Z,45.72
2018-06-03T04:31:17.888Z,45.55
2018-06-03T04:33:46.437Z,45.74
2018-06-03T04:36:14.920Z,45.36
2018-06-03T04:38:43.445Z,44.51
2018-06-03T04:41:11.957Z,44.48
2018-06-03T04:43:40.494Z,45.47
2018-06-03T04:46:08.991Z,45.28
2018-06-03T04:48:37.500Z,44.68
2018-06-03T04:51:05.977Z,44.28
2018-06-03T04:53:34.464Z,44.50
2018-06-03T04:56:03.005Z,44.80
2018-06-03T04:58:31.496Z,44.27
2018-06-03T05:01:00.008Z,44.32
2018-06-03T05:03:28.477Z,44.99
2018-06-03T05:05:56.988Z,45.22
2018-06-03T05:08:25.477Z,44.63
2018-06-03T05:10:54.056Z,44.26
2018-06-03T05:13:22.532Z,43.77
2018-06-03T05:15:51.004Z,43.39
2018-06-03T05:18:19.476Z,42.58
2018-06-03T05:20:48.004Z,42.47
2018-06-03T05:23:16.516Z,42.65
2018-06-03T05:25:44.992Z,42.06
2018-06-03T05:28:13.490Z,42.22
2018-06-03T05:30:42.004Z,42.25
2018-06-03T05:33:10.521Z,42.57
2018-06-03T05:35:39.040Z,42.08
2018-06-03T05:38:07.560Z,42.04
2018-06-03T05:40:36.028Z,41.54
2018-06-03T05:43:04.544Z,41.65
2018-06-03T05:45:33.021Z,41.31
2018-06-03T05:48:01.533Z,41.00
2018-06-03T05:50:30.002Z,40.54
2018-06-03T05:52:58.476Z,40.30
2018-06-03T05:55:26.986Z,41.29
2018-06-03T05:57:55.560Z,40.35
2018-06-03T06:00:24.036Z,39.67
2018-06-03T06:02:52.556Z,39.33
2018-06-03T06:05:21.077Z,39.04
2018-06-03T06:07:49.591Z,39.13
2018-06-03T06:10:18.064Z,38.32
2018-06-03T06:12:46.589Z,37.97
2018-06-03T06:15:15.068Z,37.56
2018-06-03T06:17:43.630Z,37.39
2018-06-03T06:20:12.163Z,36.98
2018-06-03T06:22:40.660Z,36.37
2018-06-03T06:25:09.176Z,36.40
2018-06-03T06:27:37.706Z,36.21
2018-06-03T06:30:06.284Z,35.11
2018-06-03T06:32:34.796Z,34.63
2018-06-03T06:35:03.269Z,34.35
2018-06-03T06:37:31.772Z,35.08
2018-06-03T06:40:00.257Z,34.91
2018-06-03T06:42:28.768Z,34.71
2018-06-03T06:44:57.232Z,34.58
2018-06-03T06:47:25.771Z,34.09
2018-06-03T06:49:54.245Z,33.93
2018-06-03T06:52:22.749Z,34.53
2018-06-03T06:54:51.248Z,35.65
2018-06-03T06:57:19.763Z,35.92
2018-06-03T06:59:48.276Z,36.01
2018-06-03T07:02:16.793Z,35.52
2018-06-03T07:04:45.293Z,35.90
2018-06-03T07:07:13.816Z,35.98
2018-06-03T07:09:42.284Z,35.41
2018-06-03T07:12:10.792Z,34.68
2018-06-03T07:14:39.276Z,35.51
2018-06-03T07:17:07.772Z,34.96
2018-06-03T07:19:36.240Z,34.48
2018-06-03T07:22:04.763Z,34.20
2018-06-03T07:24:33.233Z,34.36
2018-06-03T07:27:01.780Z,34.79
2018-06-03T07:29:30.257Z,35.05
2018-06-03T07:31:58.739Z,34.26
2018-06-03T07:34:27.267Z,34.66
2018-06-03T07:36:55.775Z,34.30
2018-06-03T07:39:24.313Z,33.53
2018-06-03T07:41:52.848Z,33.52
2018-06-03T07:44:21.376Z,33.37
2018-06-03T07:46:49.852Z,33.24
2018-06-03T07:49:18.349Z,33.28
2018-06-03T07:51:46.896Z,33.85
2018-06-03T07:54:15.404Z,34.33
2018-06-03T07:56:43.877Z,34.16
2018-06-03T07:59:12.395Z,33.89
2018-06-03T08:01:40.918Z,34.01
2018-06-03T08:04:09.444Z,34.42
2018-06-03T08:06:37.992Z,34.25
2018-06-03T08:09:06.518Z,34.64
2018-06-03T08:11:35.061Z,35.49
2018-06-03T08:14:03.561Z,35.57
2018-06-03T08:16:32.072Z,35.19
2018-06-03T08:19:00.596Z,35.65
2018-06-03T08:21:29.076Z,34.99
2018-06-03T08:23:58.201Z,35.43
2018-06-03T08:26:26.684Z,35.53
2018-06-03T08:28:55.198Z,35.52
2018-06-03T08:31:23.673Z,36.08
2018-06-03T08:33:52.161Z,35.23
2018-06-03T08:36:20.648Z,35.46
2018-06-03T08:38:49.171Z,34.88
2018-06-03T08:41:17.687Z,34.38
2018-06-03T08:43:46.260Z,34.60
2018-06-03T08:46:14.792Z,34.07
2018-06-03T08:48:43.338Z,33.88
2018-06-03T08:51:11.853Z,33.13
2018-06-03T08:53:40.328Z,33.56
2018-06-03T08:56:08.848Z,33.68
2018-06-03T08:58:37.390Z,33.53
2018-06-03T09:01:05.934Z,33.88
2018-06-03T09:03:34.408Z,33.04
2018-06-03T09:06:02.880Z,33.03
2018-06-03T09:08:31.432Z,32.98
2018-06-03T09:10:59.951Z,32.56
2018-06-03T09:13:28.433Z,32.55
2018-06-03T09:15:56.970Z,32.82
2018-06-03T09:18:25.485Z,32.81
2018-06-03T09:21:26.726Z,33.26
2018-06-03T09:23:56.597Z,32.70
2018-06-03T09:26:27.105Z,32.09
2018-06-03T09:28:56.933Z,31.10
2018-06-03T09:31:26.749Z,31.63
2018-06-03T09:33:56.522Z,32.34
2018-06-03T09:36:26.363Z,30.57
2018-06-03T09:38:56.150Z,31.20
2018-06-03T09:41:25.990Z,30.79
2018-06-03T09:43:55.844Z,30.28
2018-06-03T09:46:25.691Z,31.07
2018-06-03T09:48:55.580Z,30.91
2018-06-03T09:51:25.440Z,30.67
2018-06-03T09:53:55.302Z,30.90
2018-06-03T09:56:25.125Z,30.58
2018-06-03T09:58:54.920Z,30.63
2018-06-03T10:01:24.769Z,30.29
2018-06-03T10:03:54.596Z,29.86
2018-06-03T10:06:24.432Z,29.98
2018-06-03T10:08:54.277Z,30.10
2018-06-03T10:11:24.073Z,29.78
2018-06-03T10:13:53.886Z,30.01
2018-06-03T10:16:23.717Z,29.70
2018-06-03T10:18:53.546Z,29.10
2018-06-03T10:21:23.407Z,28.79
2018-06-03T10:23:53.192Z,29.12
2018-06-03T10:26:23.062Z,29.46
2018-06-03T10:28:52.889Z,28.85
2018-06-03T10:31:28.939Z,28.15
2018-06-03T10:33:59.423Z,27.22
2018-06-03T10:36:29.203Z,26.76
2018-06-03T10:38:59.032Z,26.49
2018-06-03T10:41:28.868Z,27.01
2018-06-03T10:43:58.713Z,27.24
2018-06-03T10:46:28.561Z,26.91
2018-06-03T10:48:58.384Z,27.25
2018-06-03T10:51:28.189Z,27.36
2018-06-03T10:53:58.025Z,26.98
2018-06-03T10:56:27.827Z,25.90
2018-06-03T10:58:57.692Z,26.26
2018-06-03T11:01:27.503Z,25.84
2018-06-03T11:03:57.345Z,25.60
2018-06-03T11:06:27.133Z,25.42
2018-06-03T11:08:56.978Z,25.93
2018-06-03T11:11:26.902Z,26.11
2018-06-03T11:13:56.707Z,26.40
2018-06-03T11:16:27.241Z,25.63
2018-06-03T11:18:57.041Z,26.26
2018-06-03T11:21:26.918Z,25.08
2018-06-03T11:23:56.709Z,25.99
2018-06-03T11:26:26.553Z,24.48
2018-06-03T11:28:56.363Z,25.09
2018-06-03T11:31:26.201Z,24.67
2018-06-03T11:33:55.981Z,24.87
2018-06-03T11:36:25.806Z,24.61
2018-06-03T11:38:55.593Z,24.66
2018-06-03T11:41:25.424Z,26.50
2018-06-03T11:43:55.321Z,28.74
2018-06-03T11:46:25.182Z,29.69
2018-06-03T11:48:55.050Z,30.42
2018-06-03T11:51:24.916Z,30.86
2018-06-03T11:53:54.714Z,31.28
2018-06-03T11:56:34.164Z,31.89
2018-06-03T11:59:10.920Z,32.39
2018-06-03T12:01:40.779Z,33.24
2018-06-03T12:04:10.600Z,34.46
2018-06-03T12:06:40.477Z,35.23
2018-06-03T12:09:10.417Z,35.76
2018-06-03T12:11:40.253Z,35.50
2018-06-03T12:14:10.114Z,35.23
2018-06-03T12:16:39.930Z,35.37
2018-06-03T12:19:09.760Z,35.01
2018-06-03T12:21:39.580Z,34.53
2018-06-03T12:24:09.408Z,35.19
2018-06-03T12:26:39.192Z,34.85
2018-06-03T12:29:09.065Z,35.29
2018-06-03T12:31:38.849Z,34.58
2018-06-03T12:34:08.714Z,34.17
2018-06-03T12:36:38.548Z,32.15
2018-06-03T12:39:09.720Z,32.46
2018-06-03T12:41:39.652Z,30.46
2018-06-03T12:44:09.504Z,30.38
2018-06-03T12:46:39.310Z,30.63
2018-06-03T12:49:09.184Z,30.89
2018-06-03T12:51:38.999Z,30.62
2018-06-03T12:54:08.837Z,30.42
2018-06-03T12:56:38.660Z,30.11
2018-06-03T12:59:08.500Z,29.88
2018-06-03T13:01:38.337Z,29.43
2018-06-03T13:04:08.149Z,28.87
2018-06-03T13:06:37.976Z,29.42
2018-06-03T13:09:08.056Z,32.74
2018-06-03T13:11:37.864Z,33.04
2018-06-03T13:14:07.695Z,31.77
2018-06-03T13:16:37.564Z,29.67
2018-06-03T13:19:07.401Z,30.26
2018-06-03T13:21:37.204Z,31.07
2018-06-03T13:24:07.004Z,30.47
2018-06-03T13:26:36.825Z,29.85
2018-06-03T13:29:06.652Z,28.87
2018-06-03T13:31:36.494Z,29.19
2018-06-03T13:34:06.416Z,28.37
2018-06-03T13:36:36.236Z,28.11
2018-06-03T13:39:07.674Z,27.34
2018-06-03T13:41:37.533Z,26.96
2018-06-03T13:44:07.317Z,27.49
2018-06-03T13:46:37.146Z,28.95
2018-06-03T13:49:06.988Z,28.55
2018-06-03T13:51:36.781Z,27.65
2018-06-03T13:54:06.647Z,27.32
2018-06-03T13:56:36.470Z,27.97
2018-06-03T13:59:06.304Z,27.83
2018-06-03T14:01:36.099Z,28.16
2018-06-03T14:04:05.984Z,27.59
2018-06-03T14:06:35.805Z,26.96
2018-06-03T14:09:07.090Z,27.70
2018-06-03T14:11:36.929Z,26.09
2018-06-03T14:14:06.745Z,27.13
2018-06-03T14:16:36.582Z,26.68
2018-06-03T14:19:06.388Z,27.35
2018-06-03T14:21:36.188Z,27.28
2018-06-03T14:24:05.996Z,26.37
2018-06-03T14:26:35.797Z,25.62
2018-06-03T14:29:05.589Z,25.94
2018-06-03T14:31:35.408Z,25.23
2018-06-03T14:34:05.193Z,25.99
2018-06-03T14:36:34.961Z,27.09
2018-06-03T14:39:06.616Z,26.11
2018-06-03T14:41:36.373Z,26.41
2018-06-03T14:44:06.218Z,27.09
2018-06-03T14:46:36.016Z,29.81
2018-06-03T14:49:05.828Z,29.88
2018-06-03T14:51:35.638Z,30.71
2018-06-03T14:54:05.456Z,30.41
2018-06-03T14:56:35.252Z,31.44
2018-06-03T14:59:04.970Z,32.69
2018-06-03T15:01:34.781Z,33.32
2018-06-03T15:04:04.581Z,31.45
2018-06-03T15:06:34.448Z,31.64
2018-06-03T15:09:06.177Z,31.12
2018-06-03T15:11:36.301Z,31.83
2018-06-03T15:14:06.088Z,31.83
2018-06-03T15:16:35.891Z,31.64
2018-06-03T15:19:05.716Z,32.26
2018-06-03T15:21:35.560Z,31.76
2018-06-03T15:24:05.493Z,31.78
2018-06-03T15:26:35.270Z,31.99
2018-06-03T15:29:05.284Z,32.24
2018-06-03T15:31:35.137Z,31.99
2018-06-03T15:34:04.909Z,33.31
2018-06-03T15:36:34.772Z,33.54
2018-06-03T15:39:06.385Z,34.12
2018-06-03T15:41:36.153Z,34.56
2018-06-03T15:44:06.018Z,32.72
2018-06-03T15:46:35.816Z,34.32
2018-06-03T15:49:05.629Z,35.65
2018-06-03T15:51:35.520Z,35.53
2018-06-03T15:54:05.277Z,36.34
2018-06-03T15:56:35.165Z,35.57
2018-06-03T15:59:05.032Z,34.48
2018-06-03T16:01:35.794Z,36.13
2018-06-03T16:04:05.644Z,35.79
2018-06-03T16:06:35.417Z,36.79
2018-06-03T16:09:06.664Z,36.86
2018-06-03T16:11:36.473Z,36.67
2018-06-03T16:14:06.290Z,35.60
2018-06-03T16:16:36.128Z,36.13
2018-06-03T16:19:06.069Z,36.90
2018-06-03T16:21:35.880Z,36.25
2018-06-03T16:24:05.760Z,35.89
2018-06-03T16:26:35.563Z,35.73
2018-06-03T16:29:05.438Z,35.55
2018-06-03T16:31:35.200Z,35.40
2018-06-03T16:34:05.083Z,35.56
2018-06-03T16:36:34.932Z,35.14
2018-06-03T16:39:05.936Z,34.74
2018-06-03T16:41:35.781Z,34.97
2018-06-03T16:44:05.642Z,35.53
2018-06-03T16:46:35.497Z,35.43
2018-06-03T16:49:05.464Z,36.17
2018-06-03T16:51:35.276Z,36.89
2018-06-03T16:54:05.101Z,37.15
2018-06-03T16:56:34.865Z,37.56
2018-06-03T16:59:04.704Z,37.52
2018-06-03T17:01:34.514Z,37.48
2018-06-03T17:04:04.346Z,38.69
2018-06-03T17:06:34.181Z,38.80
2018-06-03T17:09:04.857Z,38.68
2018-06-03T17:11:34.761Z,37.17
2018-06-03T17:14:04.599Z,37.55
2018-06-03T17:16:34.381Z,38.10
2018-06-03T17:19:04.209Z,37.74
2018-06-03T17:21:33.985Z,37.92
2018-06-03T17:24:03.788Z,37.69
2018-06-03T17:26:33.559Z,38.13
2018-06-03T17:29:03.379Z,37.95
2018-06-03T17:31:33.204Z,38.69
2018-06-03T17:34:03.012Z,38.68
2018-06-03T17:36:32.821Z,38.99
2018-06-03T17:39:02.642Z,38.02
2018-06-03T17:41:32.408Z,38.52
2018-06-03T17:44:02.212Z,38.84
2018-06-03T17:46:31.981Z,39.07
2018-06-03T17:49:01.838Z,39.36
2018-06-03T17:51:31.632Z,39.36
2018-06-03T17:54:01.437Z,38.70
2018-06-03T17:56:31.189Z,36.70
2018-06-03T17:59:00.988Z,36.67
2018-06-03T18:01:30.750Z,35.69
2018-06-03T18:04:00.598Z,36.35
2018-06-03T18:06:30.449Z,35.86
2018-06-03T18:09:00.221Z,36.68
2018-06-03T18:11:30.054Z,36.38
2018-06-03T18:13:59.809Z,37.22
2018-06-03T18:16:29.607Z,37.22
2018-06-03T18:18:59.412Z,38.04
2018-06-03T18:21:29.213Z,37.65
2018-06-03T18:23:59.200Z,38.06
2018-06-03T18:26:29.060Z,37.13
2018-06-03T18:28:58.860Z,37.08
2018-06-03T18:31:28.669Z,37.72
2018-06-03T18:33:58.464Z,37.43
2018-06-03T18:36:28.279Z,36.99
2018-06-03T18:38:58.088Z,36.94
2018-06-03T18:41:27.894Z,37.09
2018-06-03T18:43:57.737Z,36.41
2018-06-03T18:46:27.603Z,36.72
2018-06-03T18:48:57.349Z,36.66
2018-06-03T18:51:27.191Z,36.92
2018-06-03T18:53:56.982Z,37.10
2018-06-03T18:56:26.776Z,37.20
2018-06-03T18:58:56.600Z,37.14
2018-06-03T19:01:26.348Z,37.59
2018-06-03T19:03:56.166Z,37.60
2018-06-03T19:06:26.037Z,37.67
2018-06-03T19:08:55.934Z,38.21
2018-06-03T19:11:25.695Z,37.88
2018-06-03T19:13:55.524Z,38.31
2018-06-03T19:16:25.308Z,37.98
2018-06-03T19:18:55.112Z,38.03
2018-06-03T19:21:24.893Z,38.68
2018-06-03T19:23:54.693Z,38.30
2018-06-03T19:26:24.497Z,38.80
2018-06-03T19:28:54.311Z,39.01
2018-06-03T19:31:24.148Z,39.25
2018-06-03T19:33:53.985Z,38.90
2018-06-03T19:36:23.757Z,38.93
2018-06-03T19:38:53.565Z,39.76
2018-06-03T19:41:23.367Z,39.52
2018-06-03T19:43:53.162Z,39.56
2018-06-03T19:46:22.928Z,40.22
2018-06-03T19:48:52.749Z,40.35
2018-06-03T19:51:22.610Z,40.51
2018-06-03T19:53:52.364Z,40.44
2018-06-03T19:56:22.187Z,40.54
2018-06-03T19:58:51.940Z,40.78
2018-06-03T20:01:21.746Z,40.78
2018-06-03T20:03:51.555Z,41.20
2018-06-03T20:06:21.386Z,41.24
2018-06-03T20:08:51.132Z,41.87
2018-06-03T20:11:20.964Z,41.39
2018-06-03T20:13:50.783Z,41.91
2018-06-03T20:16:20.603Z,41.33
2018-06-03T20:18:50.392Z,41.25
2018-06-03T20:21:20.223Z,41.61
2018-06-03T20:23:49.984Z,42.13
2018-06-03T20:26:19.784Z,42.62
2018-06-03T20:28:49.521Z,42.32
2018-06-03T20:31:19.364Z,42.86
2018-06-03T20:33:49.162Z,42.54
2018-06-03T20:36:19.012Z,42.42
2018-06-03T20:38:48.824Z,42.63
2018-06-03T20:41:18.815Z,43.13
2018-06-03T20:43:48.639Z,43.89
2018-06-03T20:46:18.399Z,44.14
2018-06-03T20:48:48.212Z,43.60
2018-06-03T20:51:18.013Z,44.21
2018-06-03T20:53:47.789Z,44.03
2018-06-03T20:56:17.588Z,44.73
2018-06-03T20:58:47.348Z,44.76
2018-06-03T21:01:17.152Z,44.19
2018-06-03T21:03:46.915Z,43.75
2018-06-03T21:06:16.742Z,43.94
2018-06-03T21:08:46.511Z,44.19
2018-06-03T21:11:16.313Z,44.15
2018-06-03T21:13:46.063Z,44.01
2018-06-03T21:16:15.869Z,43.44
2018-06-03T21:18:45.636Z,43.33
2018-06-03T21:21:15.434Z,43.71
2018-06-03T21:23:45.196Z,44.10
2018-06-03T21:26:14.992Z,43.78
2018-06-03T21:28:44.792Z,43.74
2018-06-03T21:31:14.549Z,43.95
2018-06-03T21:33:44.352Z,44.32
2018-06-03T21:36:14.116Z,44.24
2018-06-03T21:38:43.912Z,44.59
2018-06-03T21:41:13.685Z,43.91
2018-06-03T21:43:43.515Z,44.25
2018-06-03T21:46:13.351Z,44.17
2018-06-03T21:48:43.109Z,44.11
2018-06-03T21:51:12.932Z,44.10
2018-06-03T21:53:42.688Z,44.10
2018-06-03T21:56:12.516Z,43.20
2018-06-03T21:58:42.308Z,43.28
2018-06-03T22:01:12.118Z,43.78
2018-06-03T22:03:41.921Z,43.75
2018-06-03T22:06:11.728Z,43.30
2018-06-03T22:08:41.550Z,43.19
2018-06-03T22:11:11.329Z,42.82
2018-06-03T22:13:41.121Z,43.00
2018-06-03T22:16:10.917Z,42.57
2018-06-03T22:18:40.758Z,43.06
2018-06-03T22:21:10.525Z,43.02
2018-06-03T22:23:40.334Z,42.22
2018-06-03T22:26:10.098Z,42.37
2018-06-03T22:28:39.899Z,42.86
2018-06-03T22:31:10.004Z,42.82
2018-06-03T22:33:39.805Z,42.99
2018-06-03T22:36:09.578Z,43.58
2018-06-03T22:38:39.404Z,43.54
2018-06-03T22:41:09.257Z,43.66
2018-06-03T22:43:39.036Z,43.64
2018-06-03T22:46:08.845Z,43.99
2018-06-03T22:48:38.621Z,43.95
2018-06-03T22:51:08.438Z,44.58
2018-06-03T22:53:38.204Z,44.13
2018-06-03T22:56:08.045Z,44.29
2018-06-03T22:58:37.816Z,45.18
2018-06-03T23:01:07.662Z,45.14
2018-06-03T23:03:37.473Z,45.28
2018-06-03T23:06:07.335Z,45.15
2018-06-03T23:08:37.208Z,45.96
2018-06-03T23:11:07.076Z,45.05
2018-06-03T23:13:36.937Z,45.41
2018-06-03T23:16:06.736Z,45.58
2018-06-03T23:18:36.568Z,44.90
2018-06-03T23:21:06.377Z,45.23
2018-06-03T23:23:36.233Z,44.74
2018-06-03T23:26:06.068Z,43.88
2018-06-03T23:28:35.928Z,44.07
2018-06-03T23:31:05.737Z,44.45
2018-06-03T23:33:35.564Z,44.39
2018-06-03T23:36:05.369Z,44.24
2018-06-03T23:38:35.200Z,43.96
2018-06-03T23:41:05.068Z,43.76
2018-06-03T23:43:34.868Z,44.12
2018-06-03T23:46:04.760Z,44.82
2018-06-03T23:48:34.593Z,44.30
2018-06-03T23:51:04.441Z,44.88
2018-06-03T23:53:34.245Z,45.00
2018-06-03T23:56:04.105Z,44.51
2018-06-03T23:58:33.920Z,44.73
